Pine Run, South Dakota
Current Conditions -  °F | °C
As of 5:52 AM on Monday 24 Nov 2014 (Local Time) from KVTN Reporting Station
Clear Clear  
Wind Chill:   Ceiling: Unl
Heat Index: 22°   Visibility: 10mi
Dew Point: 15°   Wind: 17mph
Humidity: 75%   Direction: 310°NW
Pressure: 29.73"   Gusts: 24mph
Location:  43.1909°N, 100.475°W
Report Text: KVTN 241152Z AUTO 31015G21KT 10SM CLR M06/M09 A2973 RMK AO2 SLP094 T10561094 11006 21061 53014
Loading
Personal Weather Stations






























Interactive Weather Map New forecast layout! Learn more

10-Day Weather Forecast

Advertisements
Track Severe Weather on mobile